Date,TemperatureHighF,TemperatureAvgF,TemperatureLowF,DewpointHighF,DewpointAvgF,DewpointLowF,HumidityHigh,HumidityAvg,HumidityLow,PressureMaxIn,PressureMinIn,WindSpeedMaxMPH,WindSpeedAvgMPH,GustSpeedMaxMPH,PrecipitationSumIn
2013-1-1,35.0,20.9,27.6,24.9,-23.3,-99.9,72,37,39,29.81,29.58,14,-322,31,0.00
2013-1-2,25.3,2.5,22.1,6.4,-89.0,-99.9,47,5,41,29.99,29.78,15,-864,21,0.00
2013-1-3,21.9,2.5,18.6,-1.6,-87.9,-99.9,39,4,30,30.02,29.87,9,-838,17,0.00
2013-1-4,-200.0,0.0,200.0,-99.9,-99.9,-99.9,0,0,100,29.87,29.66,0,-953,0,0.00
2013-1-5,37.3,5.5,33.2,16.5,-82.5,-99.9,50,6,36,30.16,29.68,10,-811,22,0.00
2013-1-6,40.9,16.2,31.0,26.4,-43.2,-99.9,75,30,55,30.12,29.82,10,-520,14,0.01
2013-1-7,34.9,29.5,19.9,26.7,23.4,16.4,89,78,67,30.31,29.84,5,1,10,0.00
2013-1-8,44.6,33.6,25.3,25.2,23.7,21.0,90,69,43,30.26,30.14,10,2,18,0.00
2013-1-9,43.3,33.6,21.4,32.8,25.6,18.1,88,73,55,30.31,29.86,10,2,21,0.00
2013-1-10,44.5,39.7,29.7,28.1,24.2,21.4,73,54,44,30.43,29.88,16,7,28,0.00
2013-1-11,38.8,32.5,23.6,37.0,26.5,19.8,95,79,63,30.42,30.14,2,0,6,0.08
2013-1-12,42.6,40.0,37.6,41.8,39.2,36.8,98,97,95,30.14,30.03,2,0,7,0.03
2013-1-13,50.4,44.6,39.8,49.2,44.1,39.3,99,98,93,30.05,29.87,3,1,10,0.00
2013-1-14,60.2,49.9,39.1,49.5,41.7,26.0,96,75,43,30.13,29.71,11,4,19,0.00
2013-1-15,40.9,35.7,29.7,27.2,24.3,21.3,78,64,52,30.22,30.13,3,0,5,0.00
2013-1-16,31.6,30.5,28.5,30.3,27.4,22.0,96,89,69,30.15,29.71,0,0,2,0.01
2013-1-17,40.5,31.5,26.4,32.6,23.5,3.4,96,74,35,30.01,29.71,8,2,17,0.31
2013-1-18,26.3,18.1,12.4,9.0,-4.5,-14.4,54,37,26,30.34,29.95,13,4,20,0.00
2013-1-19,44.9,35.1,18.8,28.7,18.4,3.6,68,51,38,30.27,29.77,14,3,22,0.09
2013-1-20,52.5,39.7,27.2,30.7,21.8,5.0,71,51,22,29.78,29.39,20,8,33,0.01
2013-1-21,27.3,23.4,19.2,18.3,4.4,-6.5,87,46,27,29.96,29.71,16,5,28,0.00
2013-1-22,24.8,19.1,11.1,18.1,5.7,-8.9,86,58,25,29.96,29.65,14,4,21,0.00
2013-1-23,11.2,6.8,2.0,-0.9,-11.4,-18.1,71,43,28,30.03,29.94,12,4,23,0.00
2013-1-24,14.9,6.8,-1.6,-9.4,-15.1,-18.5,46,36,25,30.08,29.92,14,9,29,0.00
2013-1-25,19.7,13.3,6.1,-2.8,-8.6,-10.3,50,37,26,30.16,29.96,12,7,23,0.00
2013-1-26,23.9,16.0,9.5,9.6,0.2,-10.6,83,53,26,30.09,29.90,12,4,27,0.00
2013-1-27,28.1,18.9,12.6,0.9,-3.8,-11.4,56,38,21,30.35,30.08,12,7,24,0.00
2013-1-28,28.2,21.0,12.6,21.7,6.0,-7.0,90,57,22,30.34,29.94,4,1,7,0.00
2013-1-29,35.5,28.6,22.9,30.3,24.6,20.1,93,85,72,30.10,29.93,2,0,6,0.11
2013-1-30,59.6,44.7,32.1,57.2,43.6,30.3,100,96,86,30.06,29.35,5,1,18,0.23
2013-1-31,62.6,47.4,30.9,58.2,34.6,7.7,97,64,35,29.42,28.80,22,12,43,0.19